sensor_id;sensor_type;location;lat;lon;timestamp;P1;durP1;ratioP1;P2;durP2;ratioP2
10471;SDS011;5283;48.876;8.962;2022-08-20T00:00:37;2.27;;;1.60;;
10471;SDS011;5283;48.876;8.962;2022-08-20T00:03:16;2.00;;;1.30;;
10471;SDS011;5283;48.876;8.962;2022-08-20T00:06:00;1.53;;;1.43;;
10471;SDS011;5283;48.876;8.962;2022-08-20T00:08:30;1.40;;;1.27;;
10471;SDS011;5283;48.876;8.962;2022-08-20T00:10:57;1.17;;;1.07;;
10471;SDS011;5283;48.876;8.962;2022-08-20T00:13:26;1.27;;;1.27;;
10471;SDS011;5283;48.876;8.962;2022-08-20T00:15:56;1.40;;;1.30;;
10471;SDS011;5283;48.876;8.962;2022-08-20T00:18:23;1.07;;;1.07;;
10471;SDS011;5283;48.876;8.962;2022-08-20T00:20:51;1.50;;;1.40;;
10471;SDS011;5283;48.876;8.962;2022-08-20T00:23:19;1.50;;;1.23;;
10471;SDS011;5283;48.876;8.962;2022-08-20T00:25:46;1.40;;;1.30;;
10471;SDS011;5283;48.876;8.962;2022-08-20T00:28:14;1.53;;;1.43;;
10471;SDS011;5283;48.876;8.962;2022-08-20T00:30:42;1.50;;;1.40;;
10471;SDS011;5283;48.876;8.962;2022-08-20T00:33:15;1.97;;;1.63;;
10471;SDS011;5283;48.876;8.962;2022-08-20T00:35:46;1.30;;;1.30;;
10471;SDS011;5283;48.876;8.962;2022-08-20T00:38:17;1.97;;;1.40;;
10471;SDS011;5283;48.876;8.962;2022-08-20T00:40:49;4.13;;;1.40;;
10471;SDS011;5283;48.876;8.962;2022-08-20T00:45:50;1.67;;;1.57;;
10471;SDS011;5283;48.876;8.962;2022-08-20T00:48:21;1.80;;;1.70;;
10471;SDS011;5283;48.876;8.962;2022-08-20T00:51:08;1.60;;;1.50;;
10471;SDS011;5283;48.876;8.962;2022-08-20T00:53:43;2.77;;;1.33;;
10471;SDS011;5283;48.876;8.962;2022-08-20T00:56:10;2.13;;;1.73;;
10471;SDS011;5283;48.876;8.962;2022-08-20T00:58:38;1.30;;;1.30;;
10471;SDS011;5283;48.876;8.962;2022-08-20T01:01:07;1.70;;;1.27;;
10471;SDS011;5283;48.876;8.962;2022-08-20T01:03:34;1.87;;;1.53;;
10471;SDS011;5283;48.876;8.962;2022-08-20T01:06:01;1.60;;;1.50;;
10471;SDS011;5283;48.876;8.962;2022-08-20T01:08:28;1.33;;;1.30;;
10471;SDS011;5283;48.876;8.962;2022-08-20T01:10:55;2.37;;;1.63;;
10471;SDS011;5283;48.876;8.962;2022-08-20T01:13:35;1.40;;;1.40;;
10471;SDS011;5283;48.876;8.962;2022-08-20T01:16:07;1.80;;;1.53;;
10471;SDS011;5283;48.876;8.962;2022-08-20T01:18:39;1.67;;;1.40;;
10471;SDS011;5283;48.876;8.962;2022-08-20T01:21:07;1.43;;;1.33;;
10471;SDS011;5283;48.876;8.962;2022-08-20T01:26:23;2.57;;;1.63;;
10471;SDS011;5283;48.876;8.962;2022-08-20T01:28:53;1.70;;;1.60;;
10471;SDS011;5283;48.876;8.962;2022-08-20T01:31:24;1.90;;;1.67;;
10471;SDS011;5283;48.876;8.962;2022-08-20T01:33:54;1.60;;;1.50;;
10471;SDS011;5283;48.876;8.962;2022-08-20T01:36:24;1.93;;;1.70;;
10471;SDS011;5283;48.876;8.962;2022-08-20T01:38:55;1.83;;;1.60;;
10471;SDS011;5283;48.876;8.962;2022-08-20T01:41:44;2.17;;;1.50;;
10471;SDS011;5283;48.876;8.962;2022-08-20T01:44:28;1.93;;;1.50;;
10471;SDS011;5283;48.876;8.962;2022-08-20T01:46:55;1.63;;;1.53;;
10471;SDS011;5283;48.876;8.962;2022-08-20T01:49:23;1.70;;;1.60;;
10471;SDS011;5283;48.876;8.962;2022-08-20T01:51:58;2.37;;;1.67;;
10471;SDS011;5283;48.876;8.962;2022-08-20T01:54:27;1.53;;;1.43;;
10471;SDS011;5283;48.876;8.962;2022-08-20T01:57:00;1.70;;;1.60;;
10471;SDS011;5283;48.876;8.962;2022-08-20T01:59:28;2.13;;;1.70;;
10471;SDS011;5283;48.876;8.962;2022-08-20T02:01:55;1.50;;;1.40;;
10471;SDS011;5283;48.876;8.962;2022-08-20T02:04:24;2.37;;;1.63;;
10471;SDS011;5283;48.876;8.962;2022-08-20T02:06:54;2.13;;;1.93;;
10471;SDS011;5283;48.876;8.962;2022-08-20T02:09:24;1.70;;;1.60;;
10471;SDS011;5283;48.876;8.962;2022-08-20T02:11:52;2.03;;;1.90;;
10471;SDS011;5283;48.876;8.962;2022-08-20T02:14:18;1.90;;;1.70;;
10471;SDS011;5283;48.876;8.962;2022-08-20T02:16:45;1.77;;;1.50;;
10471;SDS011;5283;48.876;8.962;2022-08-20T02:19:22;2.83;;;2.00;;
10471;SDS011;5283;48.876;8.962;2022-08-20T02:22:06;4.17;;;1.90;;
10471;SDS011;5283;48.876;8.962;2022-08-20T02:24:46;1.80;;;1.70;;
10471;SDS011;5283;48.876;8.962;2022-08-20T02:27:13;1.80;;;1.70;;
10471;SDS011;5283;48.876;8.962;2022-08-20T02:29:40;2.00;;;1.80;;
10471;SDS011;5283;48.876;8.962;2022-08-20T02:32:06;2.37;;;2.07;;
10471;SDS011;5283;48.876;8.962;2022-08-20T02:34:34;2.00;;;1.90;;
10471;SDS011;5283;48.876;8.962;2022-08-20T02:37:01;2.10;;;1.80;;
10471;SDS011;5283;48.876;8.962;2022-08-20T02:39:30;2.20;;;2.00;;
10471;SDS011;5283;48.876;8.962;2022-08-20T02:41:57;2.20;;;1.87;;
10471;SDS011;5283;48.876;8.962;2022-08-20T02:44:24;2.00;;;1.90;;
10471;SDS011;5283;48.876;8.962;2022-08-20T02:46:50;3.27;;;1.77;;
10471;SDS011;5283;48.876;8.962;2022-08-20T02:49:17;2.50;;;2.30;;
10471;SDS011;5283;48.876;8.962;2022-08-20T02:51:45;2.30;;;2.10;;
10471;SDS011;5283;48.876;8.962;2022-08-20T02:54:12;2.30;;;2.20;;
10471;SDS011;5283;48.876;8.962;2022-08-20T02:56:39;2.30;;;2.20;;
10471;SDS011;5283;48.876;8.962;2022-08-20T02:59:06;4.17;;;2.27;;
10471;SDS011;5283;48.876;8.962;2022-08-20T03:01:33;2.00;;;1.90;;
10471;SDS011;5283;48.876;8.962;2022-08-20T03:04:01;2.93;;;2.27;;
10471;SDS011;5283;48.876;8.962;2022-08-20T03:06:28;2.50;;;1.87;;
10471;SDS011;5283;48.876;8.962;2022-08-20T03:08:55;2.10;;;1.90;;
10471;SDS011;5283;48.876;8.962;2022-08-20T03:11:22;2.00;;;1.90;;
10471;SDS011;5283;48.876;8.962;2022-08-20T03:13:48;2.40;;;2.20;;
10471;SDS011;5283;48.876;8.962;2022-08-20T03:16:15;2.43;;;2.27;;
10471;SDS011;5283;48.876;8.962;2022-08-20T03:18:44;2.37;;;2.17;;
10471;SDS011;5283;48.876;8.962;2022-08-20T03:21:11;2.40;;;2.30;;
10471;SDS011;5283;48.876;8.962;2022-08-20T03:23:38;2.40;;;2.13;;
10471;SDS011;5283;48.876;8.962;2022-08-20T03:26:06;2.30;;;2.20;;
10471;SDS011;5283;48.876;8.962;2022-08-20T03:28:35;2.60;;;2.40;;
10471;SDS011;5283;48.876;8.962;2022-08-20T03:31:02;3.17;;;2.80;;
10471;SDS011;5283;48.876;8.962;2022-08-20T03:33:29;2.80;;;2.60;;
10471;SDS011;5283;48.876;8.962;2022-08-20T03:35:57;3.37;;;2.47;;
10471;SDS011;5283;48.876;8.962;2022-08-20T03:38:24;3.83;;;2.90;;
10471;SDS011;5283;48.876;8.962;2022-08-20T03:40:51;2.80;;;2.60;;
10471;SDS011;5283;48.876;8.962;2022-08-20T03:43:18;3.63;;;2.90;;
10471;SDS011;5283;48.876;8.962;2022-08-20T03:45:45;4.63;;;2.77;;
10471;SDS011;5283;48.876;8.962;2022-08-20T03:48:13;2.77;;;2.67;;
10471;SDS011;5283;48.876;8.962;2022-08-20T03:50:43;3.00;;;2.80;;
10471;SDS011;5283;48.876;8.962;2022-08-20T03:53:11;3.00;;;2.80;;
10471;SDS011;5283;48.876;8.962;2022-08-20T03:55:39;3.23;;;3.03;;
10471;SDS011;5283;48.876;8.962;2022-08-20T03:58:07;4.23;;;2.83;;
10471;SDS011;5283;48.876;8.962;2022-08-20T04:00:37;3.73;;;3.30;;
10471;SDS011;5283;48.876;8.962;2022-08-20T04:03:04;3.20;;;2.90;;
10471;SDS011;5283;48.876;8.962;2022-08-20T04:05:33;3.57;;;2.87;;
10471;SDS011;5283;48.876;8.962;2022-08-20T04:08:09;3.47;;;3.20;;
10471;SDS011;5283;48.876;8.962;2022-08-20T04:10:41;3.47;;;2.97;;
10471;SDS011;5283;48.876;8.962;2022-08-20T04:13:09;5.27;;;3.30;;
10471;SDS011;5283;48.876;8.962;2022-08-20T04:15:36;3.53;;;3.23;;
10471;SDS011;5283;48.876;8.962;2022-08-20T04:18:06;3.43;;;3.20;;
10471;SDS011;5283;48.876;8.962;2022-08-20T04:20:35;3.47;;;3.17;;
10471;SDS011;5283;48.876;8.962;2022-08-20T04:23:03;3.10;;;2.90;;
10471;SDS011;5283;48.876;8.962;2022-08-20T04:25:31;3.10;;;2.80;;
10471;SDS011;5283;48.876;8.962;2022-08-20T04:27:59;3.60;;;3.30;;
10471;SDS011;5283;48.876;8.962;2022-08-20T04:30:28;3.63;;;3.20;;
10471;SDS011;5283;48.876;8.962;2022-08-20T04:32:55;3.40;;;3.10;;
10471;SDS011;5283;48.876;8.962;2022-08-20T04:35:22;3.47;;;3.17;;
10471;SDS011;5283;48.876;8.962;2022-08-20T04:37:56;3.53;;;3.23;;
10471;SDS011;5283;48.876;8.962;2022-08-20T04:40:24;5.00;;;3.53;;
10471;SDS011;5283;48.876;8.962;2022-08-20T04:43:09;3.93;;;3.60;;
10471;SDS011;5283;48.876;8.962;2022-08-20T04:45:35;4.07;;;3.40;;
10471;SDS011;5283;48.876;8.962;2022-08-20T04:48:03;3.40;;;3.20;;
10471;SDS011;5283;48.876;8.962;2022-08-20T04:50:32;4.93;;;3.27;;
10471;SDS011;5283;48.876;8.962;2022-08-20T04:53:04;3.60;;;3.20;;
10471;SDS011;5283;48.876;8.962;2022-08-20T04:55:33;4.00;;;3.70;;
10471;SDS011;5283;48.876;8.962;2022-08-20T04:58:04;3.83;;;3.40;;
10471;SDS011;5283;48.876;8.962;2022-08-20T05:00:32;3.97;;;3.67;;
10471;SDS011;5283;48.876;8.962;2022-08-20T05:02:59;3.73;;;3.43;;
10471;SDS011;5283;48.876;8.962;2022-08-20T05:05:26;3.63;;;3.33;;
10471;SDS011;5283;48.876;8.962;2022-08-20T05:07:53;5.10;;;3.60;;
10471;SDS011;5283;48.876;8.962;2022-08-20T05:10:20;3.50;;;3.20;;
10471;SDS011;5283;48.876;8.962;2022-08-20T05:12:48;4.07;;;3.10;;
10471;SDS011;5283;48.876;8.962;2022-08-20T05:15:15;3.20;;;2.93;;
10471;SDS011;5283;48.876;8.962;2022-08-20T05:17:42;3.50;;;3.20;;
10471;SDS011;5283;48.876;8.962;2022-08-20T05:20:14;3.93;;;3.20;;
10471;SDS011;5283;48.876;8.962;2022-08-20T05:22:43;4.47;;;3.50;;
10471;SDS011;5283;48.876;8.962;2022-08-20T05:25:09;3.83;;;3.23;;
10471;SDS011;5283;48.876;8.962;2022-08-20T05:27:36;4.03;;;3.43;;
10471;SDS011;5283;48.876;8.962;2022-08-20T05:30:05;5.13;;;3.70;;
10471;SDS011;5283;48.876;8.962;2022-08-20T05:32:35;4.70;;;3.50;;
10471;SDS011;5283;48.876;8.962;2022-08-20T05:35:04;3.33;;;3.00;;
10471;SDS011;5283;48.876;8.962;2022-08-20T05:37:36;4.03;;;3.43;;
10471;SDS011;5283;48.876;8.962;2022-08-20T05:40:07;3.83;;;3.43;;
10471;SDS011;5283;48.876;8.962;2022-08-20T05:42:36;4.43;;;3.30;;
10471;SDS011;5283;48.876;8.962;2022-08-20T05:45:03;3.27;;;3.07;;
10471;SDS011;5283;48.876;8.962;2022-08-20T05:47:31;3.83;;;3.30;;
10471;SDS011;5283;48.876;8.962;2022-08-20T05:49:58;3.50;;;3.20;;
10471;SDS011;5283;48.876;8.962;2022-08-20T05:52:25;3.87;;;3.33;;
10471;SDS011;5283;48.876;8.962;2022-08-20T05:54:52;4.67;;;3.50;;
10471;SDS011;5283;48.876;8.962;2022-08-20T05:57:20;3.27;;;2.97;;
10471;SDS011;5283;48.876;8.962;2022-08-20T05:59:47;3.60;;;3.30;;
10471;SDS011;5283;48.876;8.962;2022-08-20T06:02:14;4.20;;;3.13;;
10471;SDS011;5283;48.876;8.962;2022-08-20T06:04:59;3.80;;;3.10;;
10471;SDS011;5283;48.876;8.962;2022-08-20T06:07:26;5.13;;;3.47;;
10471;SDS011;5283;48.876;8.962;2022-08-20T06:09:53;5.10;;;3.57;;
10471;SDS011;5283;48.876;8.962;2022-08-20T06:12:19;3.53;;;3.23;;
10471;SDS011;5283;48.876;8.962;2022-08-20T06:14:46;3.70;;;3.40;;
10471;SDS011;5283;48.876;8.962;2022-08-20T06:17:15;3.60;;;3.23;;
10471;SDS011;5283;48.876;8.962;2022-08-20T06:19:44;3.40;;;3.20;;
10471;SDS011;5283;48.876;8.962;2022-08-20T06:22:12;3.77;;;3.40;;
10471;SDS011;5283;48.876;8.962;2022-08-20T06:24:39;3.47;;;3.17;;
10471;SDS011;5283;48.876;8.962;2022-08-20T06:27:06;3.73;;;3.40;;
10471;SDS011;5283;48.876;8.962;2022-08-20T06:29:34;4.77;;;3.27;;
10471;SDS011;5283;48.876;8.962;2022-08-20T06:32:01;3.97;;;3.50;;
10471;SDS011;5283;48.876;8.962;2022-08-20T06:34:28;3.63;;;3.33;;
10471;SDS011;5283;48.876;8.962;2022-08-20T06:36:55;3.43;;;3.20;;
10471;SDS011;5283;48.876;8.962;2022-08-20T06:39:22;5.50;;;3.33;;
10471;SDS011;5283;48.876;8.962;2022-08-20T06:41:50;4.00;;;3.60;;
10471;SDS011;5283;48.876;8.962;2022-08-20T06:44:17;3.53;;;3.23;;
10471;SDS011;5283;48.876;8.962;2022-08-20T06:46:44;3.87;;;3.53;;
10471;SDS011;5283;48.876;8.962;2022-08-20T06:49:11;4.03;;;3.73;;
10471;SDS011;5283;48.876;8.962;2022-08-20T06:51:38;3.77;;;3.47;;
10471;SDS011;5283;48.876;8.962;2022-08-20T06:54:05;4.33;;;3.53;;
10471;SDS011;5283;48.876;8.962;2022-08-20T06:56:32;3.73;;;3.13;;
10471;SDS011;5283;48.876;8.962;2022-08-20T06:58:59;3.70;;;3.40;;
10471;SDS011;5283;48.876;8.962;2022-08-20T07:01:26;3.47;;;3.23;;
10471;SDS011;5283;48.876;8.962;2022-08-20T07:03:53;3.77;;;3.37;;
10471;SDS011;5283;48.876;8.962;2022-08-20T07:06:21;3.53;;;3.23;;
10471;SDS011;5283;48.876;8.962;2022-08-20T07:08:50;4.33;;;3.63;;
10471;SDS011;5283;48.876;8.962;2022-08-20T07:11:16;3.80;;;3.40;;
10471;SDS011;5283;48.876;8.962;2022-08-20T07:13:43;3.30;;;3.10;;
10471;SDS011;5283;48.876;8.962;2022-08-20T07:16:10;3.63;;;3.33;;
10471;SDS011;5283;48.876;8.962;2022-08-20T07:18:37;3.80;;;3.37;;
10471;SDS011;5283;48.876;8.962;2022-08-20T07:21:03;3.93;;;3.53;;
10471;SDS011;5283;48.876;8.962;2022-08-20T07:23:31;3.70;;;3.27;;
10471;SDS011;5283;48.876;8.962;2022-08-20T07:25:58;3.47;;;3.17;;
10471;SDS011;5283;48.876;8.962;2022-08-20T07:28:25;4.47;;;3.60;;
10471;SDS011;5283;48.876;8.962;2022-08-20T07:30:57;4.00;;;3.67;;
10471;SDS011;5283;48.876;8.962;2022-08-20T07:33:42;5.77;;;4.73;;
10471;SDS011;5283;48.876;8.962;2022-08-20T07:36:10;4.70;;;4.30;;
10471;SDS011;5283;48.876;8.962;2022-08-20T07:38:37;4.67;;;4.37;;
10471;SDS011;5283;48.876;8.962;2022-08-20T07:41:08;6.10;;;4.30;;
10471;SDS011;5283;48.876;8.962;2022-08-20T07:43:40;4.40;;;4.10;;
10471;SDS011;5283;48.876;8.962;2022-08-20T07:46:10;5.07;;;4.50;;
10471;SDS011;5283;48.876;8.962;2022-08-20T07:48:39;4.77;;;4.37;;
10471;SDS011;5283;48.876;8.962;2022-08-20T07:51:11;4.47;;;4.17;;
10471;SDS011;5283;48.876;8.962;2022-08-20T07:53:42;4.80;;;4.40;;
10471;SDS011;5283;48.876;8.962;2022-08-20T07:56:12;4.87;;;4.10;;
10471;SDS011;5283;48.876;8.962;2022-08-20T07:58:43;4.83;;;4.30;;
10471;SDS011;5283;48.876;8.962;2022-08-20T08:01:21;4.90;;;4.40;;
10471;SDS011;5283;48.876;8.962;2022-08-20T08:03:51;4.47;;;4.17;;
10471;SDS011;5283;48.876;8.962;2022-08-20T08:06:18;4.50;;;4.10;;
10471;SDS011;5283;48.876;8.962;2022-08-20T08:08:46;4.80;;;4.40;;
10471;SDS011;5283;48.876;8.962;2022-08-20T08:11:13;3.63;;;3.33;;
10471;SDS011;5283;48.876;8.962;2022-08-20T08:13:41;3.13;;;2.93;;
10471;SDS011;5283;48.876;8.962;2022-08-20T08:16:09;3.50;;;3.20;;
10471;SDS011;5283;48.876;8.962;2022-08-20T08:18:41;5.10;;;3.30;;
10471;SDS011;5283;48.876;8.962;2022-08-20T08:21:10;3.40;;;3.10;;
10471;SDS011;5283;48.876;8.962;2022-08-20T08:23:38;4.73;;;3.13;;
10471;SDS011;5283;48.876;8.962;2022-08-20T08:26:10;3.60;;;3.30;;
10471;SDS011;5283;48.876;8.962;2022-08-20T08:28:39;3.57;;;3.00;;
10471;SDS011;5283;48.876;8.962;2022-08-20T08:31:06;3.20;;;2.93;;
10471;SDS011;5283;48.876;8.962;2022-08-20T08:33:33;3.10;;;2.90;;
10471;SDS011;5283;48.876;8.962;2022-08-20T08:36:00;2.90;;;2.70;;
10471;SDS011;5283;48.876;8.962;2022-08-20T08:38:33;2.60;;;2.40;;
10471;SDS011;5283;48.876;8.962;2022-08-20T08:41:03;2.70;;;2.50;;
10471;SDS011;5283;48.876;8.962;2022-08-20T08:43:39;2.67;;;2.47;;
10471;SDS011;5283;48.876;8.962;2022-08-20T08:46:08;2.50;;;2.30;;
10471;SDS011;5283;48.876;8.962;2022-08-20T08:48:40;3.13;;;1.73;;
10471;SDS011;5283;48.876;8.962;2022-08-20T08:51:11;5.17;;;2.77;;
10471;SDS011;5283;48.876;8.962;2022-08-20T08:53:43;2.80;;;2.23;;
10471;SDS011;5283;48.876;8.962;2022-08-20T08:56:14;4.20;;;2.53;;
10471;SDS011;5283;48.876;8.962;2022-08-20T08:58:41;2.70;;;2.30;;
10471;SDS011;5283;48.876;8.962;2022-08-20T09:01:10;6.17;;;2.70;;
10471;SDS011;5283;48.876;8.962;2022-08-20T09:03:40;2.43;;;2.00;;
10471;SDS011;5283;48.876;8.962;2022-08-20T09:06:11;2.83;;;2.20;;
10471;SDS011;5283;48.876;8.962;2022-08-20T09:08:45;2.63;;;2.40;;
10471;SDS011;5283;48.876;8.962;2022-08-20T09:11:16;2.87;;;2.10;;
10471;SDS011;5283;48.876;8.962;2022-08-20T09:13:43;2.27;;;2.13;;
10471;SDS011;5283;48.876;8.962;2022-08-20T09:16:11;2.30;;;2.10;;
10471;SDS011;5283;48.876;8.962;2022-08-20T09:18:38;2.27;;;2.07;;
10471;SDS011;5283;48.876;8.962;2022-08-20T09:21:05;2.17;;;2.03;;
10471;SDS011;5283;48.876;8.962;2022-08-20T09:23:32;2.23;;;2.00;;
10471;SDS011;5283;48.876;8.962;2022-08-20T09:25:59;1.67;;;1.57;;
10471;SDS011;5283;48.876;8.962;2022-08-20T09:28:26;1.97;;;1.80;;
10471;SDS011;5283;48.876;8.962;2022-08-20T09:30:53;2.67;;;1.70;;
10471;SDS011;5283;48.876;8.962;2022-08-20T09:33:19;2.73;;;2.13;;
10471;SDS011;5283;48.876;8.962;2022-08-20T09:35:46;2.83;;;2.50;;
10471;SDS011;5283;48.876;8.962;2022-08-20T09:38:13;2.47;;;2.27;;
10471;SDS011;5283;48.876;8.962;2022-08-20T09:40:39;2.50;;;1.60;;
10471;SDS011;5283;48.876;8.962;2022-08-20T09:43:07;1.90;;;1.80;;
10471;SDS011;5283;48.876;8.962;2022-08-20T09:45:34;1.33;;;1.33;;
10471;SDS011;5283;48.876;8.962;2022-08-20T09:48:01;2.20;;;1.20;;
10471;SDS011;5283;48.876;8.962;2022-08-20T09:50:29;1.37;;;1.23;;
10471;SDS011;5283;48.876;8.962;2022-08-20T09:52:58;2.20;;;1.13;;
10471;SDS011;5283;48.876;8.962;2022-08-20T09:55:29;3.20;;;1.10;;
10471;SDS011;5283;48.876;8.962;2022-08-20T09:58:06;1.30;;;1.07;;
10471;SDS011;5283;48.876;8.962;2022-08-20T10:00:42;1.47;;;0.90;;
10471;SDS011;5283;48.876;8.962;2022-08-20T10:03:09;1.00;;;1.00;;
10471;SDS011;5283;48.876;8.962;2022-08-20T10:05:36;2.43;;;0.90;;
10471;SDS011;5283;48.876;8.962;2022-08-20T10:08:06;1.20;;;1.10;;
10471;SDS011;5283;48.876;8.962;2022-08-20T10:10:33;1.67;;;1.20;;
10471;SDS011;5283;48.876;8.962;2022-08-20T10:13:00;1.70;;;1.60;;
10471;SDS011;5283;48.876;8.962;2022-08-20T10:15:28;2.10;;;1.73;;
10471;SDS011;5283;48.876;8.962;2022-08-20T10:17:56;2.20;;;2.00;;
10471;SDS011;5283;48.876;8.962;2022-08-20T10:20:23;2.73;;;1.70;;
10471;SDS011;5283;48.876;8.962;2022-08-20T10:22:50;1.43;;;1.20;;
10471;SDS011;5283;48.876;8.962;2022-08-20T10:25:17;1.40;;;1.30;;
10471;SDS011;5283;48.876;8.962;2022-08-20T10:27:44;1.20;;;1.20;;
10471;SDS011;5283;48.876;8.962;2022-08-20T10:30:11;1.00;;;1.00;;
10471;SDS011;5283;48.876;8.962;2022-08-20T10:32:38;0.87;;;0.87;;
10471;SDS011;5283;48.876;8.962;2022-08-20T10:35:05;2.43;;;1.20;;
10471;SDS011;5283;48.876;8.962;2022-08-20T10:37:32;1.27;;;1.10;;
10471;SDS011;5283;48.876;8.962;2022-08-20T10:40:00;1.40;;;1.30;;
10471;SDS011;5283;48.876;8.962;2022-08-20T10:42:26;1.23;;;1.17;;
10471;SDS011;5283;48.876;8.962;2022-08-20T10:44:53;1.47;;;1.30;;
10471;SDS011;5283;48.876;8.962;2022-08-20T10:47:21;1.60;;;1.30;;
10471;SDS011;5283;48.876;8.962;2022-08-20T10:49:51;2.00;;;1.20;;
10471;SDS011;5283;48.876;8.962;2022-08-20T10:52:19;1.37;;;1.20;;
10471;SDS011;5283;48.876;8.962;2022-08-20T10:54:47;1.13;;;1.10;;
10471;SDS011;5283;48.876;8.962;2022-08-20T10:57:15;1.67;;;1.37;;
10471;SDS011;5283;48.876;8.962;2022-08-20T10:59:48;1.37;;;1.27;;
10471;SDS011;5283;48.876;8.962;2022-08-20T11:02:16;1.27;;;1.17;;
10471;SDS011;5283;48.876;8.962;2022-08-20T11:04:43;1.20;;;1.10;;
10471;SDS011;5283;48.876;8.962;2022-08-20T11:07:17;1.23;;;1.20;;
10471;SDS011;5283;48.876;8.962;2022-08-20T11:09:47;1.47;;;1.37;;
10471;SDS011;5283;48.876;8.962;2022-08-20T11:12:15;1.50;;;1.40;;
10471;SDS011;5283;48.876;8.962;2022-08-20T11:14:44;1.53;;;1.27;;
10471;SDS011;5283;48.876;8.962;2022-08-20T11:17:11;0.97;;;0.93;;
10471;SDS011;5283;48.876;8.962;2022-08-20T11:19:42;1.30;;;1.20;;
10471;SDS011;5283;48.876;8.962;2022-08-20T11:22:09;1.60;;;1.13;;
10471;SDS011;5283;48.876;8.962;2022-08-20T11:24:36;1.40;;;1.30;;
10471;SDS011;5283;48.876;8.962;2022-08-20T11:27:07;1.30;;;1.20;;
10471;SDS011;5283;48.876;8.962;2022-08-20T11:29:37;1.00;;;1.00;;
10471;SDS011;5283;48.876;8.962;2022-08-20T11:32:04;0.80;;;0.80;;
10471;SDS011;5283;48.876;8.962;2022-08-20T11:34:32;1.03;;;1.00;;
10471;SDS011;5283;48.876;8.962;2022-08-20T11:36:59;1.20;;;1.20;;
10471;SDS011;5283;48.876;8.962;2022-08-20T11:39:26;1.30;;;1.10;;
10471;SDS011;5283;48.876;8.962;2022-08-20T11:41:52;0.80;;;0.80;;
10471;SDS011;5283;48.876;8.962;2022-08-20T11:44:20;1.60;;;1.23;;
10471;SDS011;5283;48.876;8.962;2022-08-20T11:46:46;1.07;;;1.07;;
10471;SDS011;5283;48.876;8.962;2022-08-20T11:49:13;1.57;;;0.90;;
10471;SDS011;5283;48.876;8.962;2022-08-20T11:51:40;0.80;;;0.80;;
10471;SDS011;5283;48.876;8.962;2022-08-20T11:54:07;0.80;;;0.80;;
10471;SDS011;5283;48.876;8.962;2022-08-20T11:56:34;0.90;;;0.90;;
10471;SDS011;5283;48.876;8.962;2022-08-20T11:59:01;1.03;;;0.90;;
10471;SDS011;5283;48.876;8.962;2022-08-20T12:01:27;1.33;;;1.00;;
10471;SDS011;5283;48.876;8.962;2022-08-20T12:03:54;0.87;;;0.87;;
10471;SDS011;5283;48.876;8.962;2022-08-20T12:06:21;1.00;;;1.00;;
10471;SDS011;5283;48.876;8.962;2022-08-20T12:08:47;0.90;;;0.90;;
10471;SDS011;5283;48.876;8.962;2022-08-20T12:11:14;1.33;;;1.10;;
10471;SDS011;5283;48.876;8.962;2022-08-20T12:13:41;0.90;;;0.90;;
10471;SDS011;5283;48.876;8.962;2022-08-20T12:16:07;1.30;;;1.20;;
10471;SDS011;5283;48.876;8.962;2022-08-20T12:18:34;1.47;;;0.90;;
10471;SDS011;5283;48.876;8.962;2022-08-20T12:21:01;1.10;;;1.00;;
10471;SDS011;5283;48.876;8.962;2022-08-20T12:23:27;1.00;;;1.00;;
10471;SDS011;5283;48.876;8.962;2022-08-20T12:25:54;1.60;;;0.80;;
10471;SDS011;5283;48.876;8.962;2022-08-20T12:28:21;1.30;;;1.13;;
10471;SDS011;5283;48.876;8.962;2022-08-20T12:30:47;1.03;;;1.00;;
10471;SDS011;5283;48.876;8.962;2022-08-20T12:33:14;0.80;;;0.80;;
10471;SDS011;5283;48.876;8.962;2022-08-20T12:35:41;1.00;;;1.00;;
10471;SDS011;5283;48.876;8.962;2022-08-20T12:38:08;2.40;;;0.90;;
10471;SDS011;5283;48.876;8.962;2022-08-20T12:40:34;1.93;;;1.00;;
10471;SDS011;5283;48.876;8.962;2022-08-20T12:43:01;1.13;;;1.13;;
10471;SDS011;5283;48.876;8.962;2022-08-20T12:45:29;1.20;;;1.20;;
10471;SDS011;5283;48.876;8.962;2022-08-20T12:48:01;1.80;;;0.90;;
10471;SDS011;5283;48.876;8.962;2022-08-20T12:50:30;1.23;;;1.00;;
10471;SDS011;5283;48.876;8.962;2022-08-20T12:52:58;1.80;;;1.27;;
10471;SDS011;5283;48.876;8.962;2022-08-20T12:55:25;1.10;;;1.00;;
10471;SDS011;5283;48.876;8.962;2022-08-20T12:57:53;1.30;;;1.20;;
10471;SDS011;5283;48.876;8.962;2022-08-20T13:00:23;1.00;;;0.90;;
10471;SDS011;5283;48.876;8.962;2022-08-20T13:02:52;0.93;;;0.77;;
10471;SDS011;5283;48.876;8.962;2022-08-20T13:05:21;0.70;;;0.70;;
10471;SDS011;5283;48.876;8.962;2022-08-20T13:07:49;1.83;;;0.93;;
10471;SDS011;5283;48.876;8.962;2022-08-20T13:10:18;1.07;;;0.83;;
10471;SDS011;5283;48.876;8.962;2022-08-20T13:12:48;1.03;;;0.90;;
10471;SDS011;5283;48.876;8.962;2022-08-20T13:15:14;0.77;;;0.77;;
10471;SDS011;5283;48.876;8.962;2022-08-20T13:17:42;0.90;;;0.90;;
10471;SDS011;5283;48.876;8.962;2022-08-20T13:20:10;3.80;;;0.90;;
10471;SDS011;5283;48.876;8.962;2022-08-20T13:22:39;0.90;;;0.90;;
10471;SDS011;5283;48.876;8.962;2022-08-20T13:25:07;1.10;;;1.00;;
10471;SDS011;5283;48.876;8.962;2022-08-20T13:27:34;0.70;;;0.70;;
10471;SDS011;5283;48.876;8.962;2022-08-20T13:30:03;0.70;;;0.70;;
10471;SDS011;5283;48.876;8.962;2022-08-20T13:32:32;0.93;;;0.70;;
10471;SDS011;5283;48.876;8.962;2022-08-20T13:34:58;1.00;;;0.77;;
10471;SDS011;5283;48.876;8.962;2022-08-20T13:37:26;1.13;;;0.70;;
10471;SDS011;5283;48.876;8.962;2022-08-20T13:39:54;0.93;;;0.60;;
10471;SDS011;5283;48.876;8.962;2022-08-20T13:42:22;0.97;;;0.70;;
10471;SDS011;5283;48.876;8.962;2022-08-20T13:44:48;0.83;;;0.50;;
10471;SDS011;5283;48.876;8.962;2022-08-20T13:47:16;1.33;;;0.60;;
10471;SDS011;5283;48.876;8.962;2022-08-20T13:49:45;0.63;;;0.63;;
10471;SDS011;5283;48.876;8.962;2022-08-20T13:52:13;1.93;;;0.70;;
10471;SDS011;5283;48.876;8.962;2022-08-20T13:54:40;0.40;;;0.40;;
10471;SDS011;5283;48.876;8.962;2022-08-20T13:57:13;0.50;;;0.50;;
10471;SDS011;5283;48.876;8.962;2022-08-20T13:59:43;0.50;;;0.50;;
10471;SDS011;5283;48.876;8.962;2022-08-20T14:02:11;0.50;;;0.50;;
10471;SDS011;5283;48.876;8.962;2022-08-20T14:04:39;0.50;;;0.50;;
10471;SDS011;5283;48.876;8.962;2022-08-20T14:07:09;0.93;;;0.50;;
10471;SDS011;5283;48.876;8.962;2022-08-20T14:09:38;0.57;;;0.57;;
10471;SDS011;5283;48.876;8.962;2022-08-20T14:12:06;0.70;;;0.70;;
10471;SDS011;5283;48.876;8.962;2022-08-20T14:14:34;0.37;;;0.37;;
10471;SDS011;5283;48.876;8.962;2022-08-20T14:17:12;0.63;;;0.40;;
10471;SDS011;5283;48.876;8.962;2022-08-20T14:19:38;0.70;;;0.60;;
10471;SDS011;5283;48.876;8.962;2022-08-20T14:22:05;0.80;;;0.40;;
10471;SDS011;5283;48.876;8.962;2022-08-20T14:24:32;0.63;;;0.50;;
10471;SDS011;5283;48.876;8.962;2022-08-20T14:27:04;0.57;;;0.50;;
10471;SDS011;5283;48.876;8.962;2022-08-20T14:29:36;1.17;;;0.60;;
10471;SDS011;5283;48.876;8.962;2022-08-20T14:32:04;0.40;;;0.40;;
10471;SDS011;5283;48.876;8.962;2022-08-20T14:34:32;0.83;;;0.50;;
10471;SDS011;5283;48.876;8.962;2022-08-20T14:37:13;1.33;;;0.70;;
10471;SDS011;5283;48.876;8.962;2022-08-20T14:39:42;0.70;;;0.70;;
10471;SDS011;5283;48.876;8.962;2022-08-20T14:42:10;1.93;;;0.90;;
10471;SDS011;5283;48.876;8.962;2022-08-20T14:44:38;0.40;;;0.40;;
10471;SDS011;5283;48.876;8.962;2022-08-20T14:49:49;0.50;;;0.50;;
10471;SDS011;5283;48.876;8.962;2022-08-20T14:52:17;1.30;;;0.60;;
10471;SDS011;5283;48.876;8.962;2022-08-20T14:54:46;0.50;;;0.50;;
10471;SDS011;5283;48.876;8.962;2022-08-20T14:57:13;2.63;;;0.70;;
10471;SDS011;5283;48.876;8.962;2022-08-20T14:59:41;2.40;;;0.73;;
10471;SDS011;5283;48.876;8.962;2022-08-20T15:02:10;0.73;;;0.73;;
10471;SDS011;5283;48.876;8.962;2022-08-20T15:04:38;0.97;;;0.80;;
10471;SDS011;5283;48.876;8.962;2022-08-20T15:07:06;0.87;;;0.87;;
10471;SDS011;5283;48.876;8.962;2022-08-20T15:09:40;0.70;;;0.70;;
10471;SDS011;5283;48.876;8.962;2022-08-20T15:12:07;1.03;;;1.00;;
10471;SDS011;5283;48.876;8.962;2022-08-20T15:14:33;1.07;;;0.77;;
10471;SDS011;5283;48.876;8.962;2022-08-20T15:17:00;1.00;;;1.00;;